sensor_id;sensor_type;location;lat;lon;timestamp;pressure;altitude;pressure_sealevel;temperature;humidity
17649;BME280;8943;51.110;-4.158;2023-03-22T00:01:48;99473.38;;;15.74;59.22
17649;BME280;8943;51.110;-4.158;2023-03-22T00:04:21;99451.88;;;15.74;59.17
17649;BME280;8943;51.110;-4.158;2023-03-22T00:06:52;99457.91;;;15.76;59.25
17649;BME280;8943;51.110;-4.158;2023-03-22T00:09:22;99459.59;;;15.77;59.23
17649;BME280;8943;51.110;-4.158;2023-03-22T00:11:51;99468.50;;;15.77;59.23
17649;BME280;8943;51.110;-4.158;2023-03-22T00:14:20;99448.72;;;15.70;59.35
17649;BME280;8943;51.110;-4.158;2023-03-22T00:16:49;99436.78;;;15.73;59.46
17649;BME280;8943;51.110;-4.158;2023-03-22T00:19:17;99445.50;;;15.75;59.51
17649;BME280;8943;51.110;-4.158;2023-03-22T00:21:47;99437.13;;;15.69;59.54
17649;BME280;8943;51.110;-4.158;2023-03-22T00:24:18;99435.47;;;15.68;59.74
17649;BME280;8943;51.110;-4.158;2023-03-22T00:26:48;99431.59;;;15.71;60.08
17649;BME280;8943;51.110;-4.158;2023-03-22T00:29:17;99428.25;;;15.69;59.75
17649;BME280;8943;51.110;-4.158;2023-03-22T00:31:52;99426.41;;;15.69;59.82
17649;BME280;8943;51.110;-4.158;2023-03-22T00:34:22;99420.00;;;15.70;59.93
17649;BME280;8943;51.110;-4.158;2023-03-22T00:36:51;99416.88;;;15.67;59.87
17649;BME280;8943;51.110;-4.158;2023-03-22T00:39:21;99403.91;;;15.70;59.95
17649;BME280;8943;51.110;-4.158;2023-03-22T00:41:51;99405.59;;;15.72;60.03
17649;BME280;8943;51.110;-4.158;2023-03-22T00:44:21;99399.91;;;15.66;60.05
17649;BME280;8943;51.110;-4.158;2023-03-22T00:46:50;99388.81;;;15.69;60.12
17649;BME280;8943;51.110;-4.158;2023-03-22T00:49:19;99401.22;;;15.70;60.07
17649;BME280;8943;51.110;-4.158;2023-03-22T00:51:48;99389.00;;;15.68;60.50
17649;BME280;8943;51.110;-4.158;2023-03-22T00:54:19;99385.78;;;15.73;59.91
17649;BME280;8943;51.110;-4.158;2023-03-22T00:56:47;99387.16;;;15.68;60.04
17649;BME280;8943;51.110;-4.158;2023-03-22T00:59:16;99367.31;;;15.69;60.32
17649;BME280;8943;51.110;-4.158;2023-03-22T01:01:44;99373.38;;;15.72;60.61
17649;BME280;8943;51.110;-4.158;2023-03-22T01:04:12;99370.38;;;15.66;60.38
17649;BME280;8943;51.110;-4.158;2023-03-22T01:06:43;99369.66;;;15.73;60.48
17649;BME280;8943;51.110;-4.158;2023-03-22T01:09:12;99371.69;;;15.70;60.50
17649;BME280;8943;51.110;-4.158;2023-03-22T01:11:43;99382.13;;;15.65;60.52
17649;BME280;8943;51.110;-4.158;2023-03-22T01:14:11;99373.06;;;15.66;60.43
17649;BME280;8943;51.110;-4.158;2023-03-22T01:16:41;99363.16;;;15.67;60.39
17649;BME280;8943;51.110;-4.158;2023-03-22T01:19:10;99360.28;;;15.68;60.76
17649;BME280;8943;51.110;-4.158;2023-03-22T01:21:39;99369.38;;;15.67;60.31
17649;BME280;8943;51.110;-4.158;2023-03-22T01:24:07;99369.53;;;15.66;60.69
17649;BME280;8943;51.110;-4.158;2023-03-22T01:26:35;99372.88;;;15.68;60.73
17649;BME280;8943;51.110;-4.158;2023-03-22T01:29:06;99371.22;;;15.67;60.83
17649;BME280;8943;51.110;-4.158;2023-03-22T01:31:34;99378.06;;;15.69;60.74
17649;BME280;8943;51.110;-4.158;2023-03-22T01:34:03;99362.16;;;15.68;60.97
17649;BME280;8943;51.110;-4.158;2023-03-22T01:36:31;99357.94;;;15.65;61.01
17649;BME280;8943;51.110;-4.158;2023-03-22T01:38:59;99359.28;;;15.69;61.17
17649;BME280;8943;51.110;-4.158;2023-03-22T01:41:27;99365.97;;;15.74;61.25
17649;BME280;8943;51.110;-4.158;2023-03-22T01:44:21;99360.09;;;15.70;61.11
17649;BME280;8943;51.110;-4.158;2023-03-22T01:46:50;99349.84;;;15.74;61.16
17649;BME280;8943;51.110;-4.158;2023-03-22T01:49:21;99337.91;;;15.76;61.10
17649;BME280;8943;51.110;-4.158;2023-03-22T01:51:52;99349.94;;;15.80;61.04
17649;BME280;8943;51.110;-4.158;2023-03-22T01:54:26;99348.47;;;15.78;61.22
17649;BME280;8943;51.110;-4.158;2023-03-22T01:56:57;99338.75;;;15.77;61.25
17649;BME280;8943;51.110;-4.158;2023-03-22T01:59:28;99349.78;;;15.82;61.21
17649;BME280;8943;51.110;-4.158;2023-03-22T02:01:57;99358.84;;;15.81;61.20
17649;BME280;8943;51.110;-4.158;2023-03-22T02:04:31;99342.72;;;15.81;61.56
17649;BME280;8943;51.110;-4.158;2023-03-22T02:07:03;99351.47;;;15.83;61.28
17649;BME280;8943;51.110;-4.158;2023-03-22T02:09:36;99348.38;;;15.86;61.49
17649;BME280;8943;51.110;-4.158;2023-03-22T02:12:15;99345.16;;;15.90;61.40
17649;BME280;8943;51.110;-4.158;2023-03-22T02:14:57;99363.09;;;15.98;61.58
17649;BME280;8943;51.110;-4.158;2023-03-22T02:17:34;99346.22;;;16.04;61.53
17649;BME280;8943;51.110;-4.158;2023-03-22T02:20:38;99337.81;;;16.07;61.66
17649;BME280;8943;51.110;-4.158;2023-03-22T02:29:24;99361.84;;;16.23;61.45
17649;BME280;8943;51.110;-4.158;2023-03-22T02:35:23;99379.44;;;16.11;61.58
17649;BME280;8943;51.110;-4.158;2023-03-22T02:38:16;99346.81;;;16.14;61.39
17649;BME280;8943;51.110;-4.158;2023-03-22T02:41:00;99357.09;;;16.11;61.41
17649;BME280;8943;51.110;-4.158;2023-03-22T02:43:35;99367.47;;;16.14;61.27
17649;BME280;8943;51.110;-4.158;2023-03-22T02:46:08;99378.75;;;16.09;61.59
17649;BME280;8943;51.110;-4.158;2023-03-22T02:48:41;99387.31;;;16.13;61.30
17649;BME280;8943;51.110;-4.158;2023-03-22T02:51:14;99375.72;;;16.12;61.04
17649;BME280;8943;51.110;-4.158;2023-03-22T02:53:48;99385.16;;;16.08;61.22
17649;BME280;8943;51.110;-4.158;2023-03-22T02:56:23;99396.25;;;16.05;61.22
17649;BME280;8943;51.110;-4.158;2023-03-22T02:58:55;99398.09;;;16.05;60.87
17649;BME280;8943;51.110;-4.158;2023-03-22T03:01:26;99403.13;;;16.08;60.56
17649;BME280;8943;51.110;-4.158;2023-03-22T03:03:56;99389.69;;;16.08;60.65
17649;BME280;8943;51.110;-4.158;2023-03-22T03:06:31;99397.56;;;16.09;60.64
17649;BME280;8943;51.110;-4.158;2023-03-22T03:09:02;99409.03;;;16.03;61.05
17649;BME280;8943;51.110;-4.158;2023-03-22T03:11:32;99423.50;;;16.02;60.45
17649;BME280;8943;51.110;-4.158;2023-03-22T03:14:00;99417.75;;;16.05;60.64
17649;BME280;8943;51.110;-4.158;2023-03-22T03:16:31;99400.69;;;15.98;60.22
17649;BME280;8943;51.110;-4.158;2023-03-22T03:19:06;99392.00;;;15.96;60.29
17649;BME280;8943;51.110;-4.158;2023-03-22T03:21:45;99378.38;;;15.98;60.47
17649;BME280;8943;51.110;-4.158;2023-03-22T03:24:19;99370.50;;;15.96;60.30
17649;BME280;8943;51.110;-4.158;2023-03-22T03:26:59;99406.59;;;15.93;60.24
17649;BME280;8943;51.110;-4.158;2023-03-22T03:29:34;99419.69;;;15.96;59.90
17649;BME280;8943;51.110;-4.158;2023-03-22T03:32:08;99421.69;;;15.94;59.82
17649;BME280;8943;51.110;-4.158;2023-03-22T03:34:41;99437.66;;;15.96;59.55
17649;BME280;8943;51.110;-4.158;2023-03-22T03:37:19;99394.47;;;15.98;59.43
17649;BME280;8943;51.110;-4.158;2023-03-22T03:39:53;99389.94;;;15.98;59.36
17649;BME280;8943;51.110;-4.158;2023-03-22T03:42:27;99368.81;;;15.95;59.26
17649;BME280;8943;51.110;-4.158;2023-03-22T03:44:57;99391.84;;;15.89;59.51
17649;BME280;8943;51.110;-4.158;2023-03-22T03:47:27;99401.41;;;15.92;59.49
17649;BME280;8943;51.110;-4.158;2023-03-22T03:49:56;99429.09;;;15.92;59.21
17649;BME280;8943;51.110;-4.158;2023-03-22T03:52:25;99427.59;;;15.90;59.15
17649;BME280;8943;51.110;-4.158;2023-03-22T03:54:55;99442.34;;;15.94;58.99
17649;BME280;8943;51.110;-4.158;2023-03-22T03:57:25;99430.59;;;15.95;58.90
17649;BME280;8943;51.110;-4.158;2023-03-22T03:59:53;99424.56;;;15.93;59.15
17649;BME280;8943;51.110;-4.158;2023-03-22T04:02:23;99438.53;;;15.88;59.06
17649;BME280;8943;51.110;-4.158;2023-03-22T04:05:07;99430.78;;;15.93;58.92
17649;BME280;8943;51.110;-4.158;2023-03-22T04:07:38;99435.66;;;15.90;58.96
17649;BME280;8943;51.110;-4.158;2023-03-22T04:10:08;99440.72;;;15.85;58.99
17649;BME280;8943;51.110;-4.158;2023-03-22T04:12:40;99437.34;;;15.91;58.92
17649;BME280;8943;51.110;-4.158;2023-03-22T04:15:09;99436.38;;;15.84;59.10
17649;BME280;8943;51.110;-4.158;2023-03-22T04:17:41;99449.16;;;15.82;59.42
17649;BME280;8943;51.110;-4.158;2023-03-22T04:20:10;99446.94;;;15.85;58.79
17649;BME280;8943;51.110;-4.158;2023-03-22T04:22:40;99458.88;;;15.83;58.93
17649;BME280;8943;51.110;-4.158;2023-03-22T04:25:10;99466.44;;;15.79;58.99
17649;BME280;8943;51.110;-4.158;2023-03-22T04:27:41;99456.91;;;15.77;59.23
17649;BME280;8943;51.110;-4.158;2023-03-22T04:30:11;99453.56;;;15.75;59.15
17649;BME280;8943;51.110;-4.158;2023-03-22T04:32:47;99476.25;;;15.72;59.32
17649;BME280;8943;51.110;-4.158;2023-03-22T04:35:17;99480.41;;;15.75;58.86
17649;BME280;8943;51.110;-4.158;2023-03-22T04:37:45;99464.38;;;15.66;59.18
17649;BME280;8943;51.110;-4.158;2023-03-22T04:40:14;99469.38;;;15.69;59.23
17649;BME280;8943;51.110;-4.158;2023-03-22T04:42:45;99477.13;;;15.64;58.81
17649;BME280;8943;51.110;-4.158;2023-03-22T04:45:13;99475.44;;;15.63;58.39
17649;BME280;8943;51.110;-4.158;2023-03-22T04:47:42;99492.69;;;15.61;58.32
17649;BME280;8943;51.110;-4.158;2023-03-22T04:50:10;99486.69;;;15.59;57.84
17649;BME280;8943;51.110;-4.158;2023-03-22T04:52:39;99494.41;;;15.54;57.85
17649;BME280;8943;51.110;-4.158;2023-03-22T04:55:07;99503.13;;;15.56;57.69
17649;BME280;8943;51.110;-4.158;2023-03-22T04:57:36;99490.06;;;15.53;57.37
17649;BME280;8943;51.110;-4.158;2023-03-22T05:00:08;99486.06;;;15.49;57.42
17649;BME280;8943;51.110;-4.158;2023-03-22T05:02:36;99484.72;;;15.44;57.48
17649;BME280;8943;51.110;-4.158;2023-03-22T05:05:07;99484.41;;;15.39;57.29
17649;BME280;8943;51.110;-4.158;2023-03-22T05:07:35;99497.34;;;15.36;57.06
17649;BME280;8943;51.110;-4.158;2023-03-22T05:10:06;99493.63;;;15.37;57.01
17649;BME280;8943;51.110;-4.158;2023-03-22T05:12:36;99487.63;;;15.35;56.55
17649;BME280;8943;51.110;-4.158;2023-03-22T05:15:08;99491.97;;;15.36;56.47
17649;BME280;8943;51.110;-4.158;2023-03-22T05:17:37;99482.44;;;15.33;56.18
17649;BME280;8943;51.110;-4.158;2023-03-22T05:20:06;99475.72;;;15.29;55.93
17649;BME280;8943;51.110;-4.158;2023-03-22T05:22:36;99480.91;;;15.31;55.85
17649;BME280;8943;51.110;-4.158;2023-03-22T05:25:08;99481.09;;;15.29;55.94
17649;BME280;8943;51.110;-4.158;2023-03-22T05:27:37;99485.78;;;15.27;56.14
17649;BME280;8943;51.110;-4.158;2023-03-22T05:30:08;99480.59;;;15.26;56.25
17649;BME280;8943;51.110;-4.158;2023-03-22T05:32:37;99472.22;;;15.29;56.43
17649;BME280;8943;51.110;-4.158;2023-03-22T05:35:10;99483.97;;;15.28;56.83
17649;BME280;8943;51.110;-4.158;2023-03-22T05:37:39;99484.31;;;15.25;56.71
17649;BME280;8943;51.110;-4.158;2023-03-22T05:40:08;99485.63;;;15.29;56.61
17649;BME280;8943;51.110;-4.158;2023-03-22T05:42:38;99483.28;;;15.26;56.59
17649;BME280;8943;51.110;-4.158;2023-03-22T05:45:09;99487.63;;;15.27;56.61
17649;BME280;8943;51.110;-4.158;2023-03-22T05:47:38;99487.16;;;15.23;56.59
17649;BME280;8943;51.110;-4.158;2023-03-22T05:50:07;99475.94;;;15.19;56.60
17649;BME280;8943;51.110;-4.158;2023-03-22T05:52:37;99477.94;;;15.17;56.70
17649;BME280;8943;51.110;-4.158;2023-03-22T05:55:06;99487.50;;;15.20;56.69
17649;BME280;8943;51.110;-4.158;2023-03-22T05:57:36;99492.03;;;15.19;56.67
17649;BME280;8943;51.110;-4.158;2023-03-22T06:00:06;99492.34;;;15.25;57.00
17649;BME280;8943;51.110;-4.158;2023-03-22T06:02:41;99493.84;;;15.27;56.99
17649;BME280;8943;51.110;-4.158;2023-03-22T06:05:12;99496.69;;;15.26;56.74
17649;BME280;8943;51.110;-4.158;2023-03-22T06:07:42;99503.41;;;15.30;56.33
17649;BME280;8943;51.110;-4.158;2023-03-22T06:10:13;99496.38;;;15.29;56.21
17649;BME280;8943;51.110;-4.158;2023-03-22T06:12:51;99498.38;;;15.27;56.28
17649;BME280;8943;51.110;-4.158;2023-03-22T06:15:47;99504.44;;;15.20;56.07
17649;BME280;8943;51.110;-4.158;2023-03-22T06:18:35;99510.81;;;15.19;56.19
17649;BME280;8943;51.110;-4.158;2023-03-22T06:21:49;99502.25;;;15.16;56.29
17649;BME280;8943;51.110;-4.158;2023-03-22T06:24:39;99509.66;;;15.14;56.37
17649;BME280;8943;51.110;-4.158;2023-03-22T06:27:35;99511.66;;;15.12;56.15
17649;BME280;8943;51.110;-4.158;2023-03-22T06:30:05;99504.63;;;15.11;56.30
17649;BME280;8943;51.110;-4.158;2023-03-22T06:33:10;99507.66;;;15.08;56.29
17649;BME280;8943;51.110;-4.158;2023-03-22T06:36:09;99505.50;;;15.03;56.17
17649;BME280;8943;51.110;-4.158;2023-03-22T06:38:38;99515.56;;;15.01;56.43
17649;BME280;8943;51.110;-4.158;2023-03-22T06:41:06;99522.94;;;14.99;56.08
17649;BME280;8943;51.110;-4.158;2023-03-22T06:43:35;99515.03;;;14.98;56.17
17649;BME280;8943;51.110;-4.158;2023-03-22T06:46:03;99513.88;;;14.92;56.21
17649;BME280;8943;51.110;-4.158;2023-03-22T06:48:31;99509.88;;;14.88;56.37
17649;BME280;8943;51.110;-4.158;2023-03-22T06:51:00;99513.91;;;14.84;56.32
17649;BME280;8943;51.110;-4.158;2023-03-22T06:53:30;99504.53;;;14.80;56.43
17649;BME280;8943;51.110;-4.158;2023-03-22T06:55:58;99504.22;;;14.75;56.70
17649;BME280;8943;51.110;-4.158;2023-03-22T06:58:26;99508.72;;;14.74;56.49
17649;BME280;8943;51.110;-4.158;2023-03-22T07:00:55;99515.25;;;14.72;56.58
17649;BME280;8943;51.110;-4.158;2023-03-22T07:03:23;99514.59;;;14.70;56.63
17649;BME280;8943;51.110;-4.158;2023-03-22T07:05:51;99508.56;;;14.67;56.64
17649;BME280;8943;51.110;-4.158;2023-03-22T07:08:20;99514.94;;;14.66;56.69
17649;BME280;8943;51.110;-4.158;2023-03-22T07:10:50;99518.63;;;14.65;56.79
17649;BME280;8943;51.110;-4.158;2023-03-22T07:13:18;99512.56;;;14.63;56.82
17649;BME280;8943;51.110;-4.158;2023-03-22T07:15:46;99511.59;;;14.64;56.74
17649;BME280;8943;51.110;-4.158;2023-03-22T07:18:14;99506.22;;;14.64;56.80
17649;BME280;8943;51.110;-4.158;2023-03-22T07:20:44;99502.88;;;14.62;56.96
17649;BME280;8943;51.110;-4.158;2023-03-22T07:23:13;99503.53;;;14.64;56.87
17649;BME280;8943;51.110;-4.158;2023-03-22T07:25:41;99510.56;;;14.65;56.92
17649;BME280;8943;51.110;-4.158;2023-03-22T07:28:11;99516.59;;;14.67;56.87
17649;BME280;8943;51.110;-4.158;2023-03-22T07:30:40;99528.00;;;14.70;57.04
17649;BME280;8943;51.110;-4.158;2023-03-22T07:33:09;99514.44;;;14.71;57.07
17649;BME280;8943;51.110;-4.158;2023-03-22T07:35:38;99507.53;;;14.77;57.00
17649;BME280;8943;51.110;-4.158;2023-03-22T07:38:06;99504.69;;;14.78;57.35
17649;BME280;8943;51.110;-4.158;2023-03-22T07:40:35;99505.38;;;14.80;57.22
17649;BME280;8943;51.110;-4.158;2023-03-22T07:43:04;99508.88;;;14.89;57.30
17649;BME280;8943;51.110;-4.158;2023-03-22T07:45:33;99501.31;;;14.92;57.14
17649;BME280;8943;51.110;-4.158;2023-03-22T07:48:02;99508.00;;;14.97;57.26
17649;BME280;8943;51.110;-4.158;2023-03-22T07:50:30;99501.81;;;15.04;57.25
17649;BME280;8943;51.110;-4.158;2023-03-22T07:52:59;99512.84;;;15.09;57.16
17649;BME280;8943;51.110;-4.158;2023-03-22T07:55:29;99515.03;;;15.14;57.24
17649;BME280;8943;51.110;-4.158;2023-03-22T07:57:57;99521.72;;;15.18;57.11
17649;BME280;8943;51.110;-4.158;2023-03-22T08:00:27;99526.41;;;15.24;57.03
17649;BME280;8943;51.110;-4.158;2023-03-22T08:02:58;99523.19;;;15.29;57.34
17649;BME280;8943;51.110;-4.158;2023-03-22T08:05:26;99522.69;;;15.33;57.09
17649;BME280;8943;51.110;-4.158;2023-03-22T08:07:55;99513.63;;;15.34;57.12
17649;BME280;8943;51.110;-4.158;2023-03-22T08:10:23;99523.31;;;15.43;56.89
17649;BME280;8943;51.110;-4.158;2023-03-22T08:12:51;99516.09;;;15.44;56.84
17649;BME280;8943;51.110;-4.158;2023-03-22T08:15:20;99509.50;;;15.55;56.63
17649;BME280;8943;51.110;-4.158;2023-03-22T08:17:49;99512.19;;;15.55;56.74
17649;BME280;8943;51.110;-4.158;2023-03-22T08:20:18;99512.00;;;15.56;56.66
17649;BME280;8943;51.110;-4.158;2023-03-22T08:22:47;99522.06;;;15.62;56.49
17649;BME280;8943;51.110;-4.158;2023-03-22T08:25:15;99531.13;;;15.61;56.24
17649;BME280;8943;51.110;-4.158;2023-03-22T08:27:43;99525.09;;;15.67;56.07
17649;BME280;8943;51.110;-4.158;2023-03-22T08:30:12;99523.75;;;15.72;56.15
17649;BME280;8943;51.110;-4.158;2023-03-22T08:32:41;99515.50;;;15.73;55.83
17649;BME280;8943;51.110;-4.158;2023-03-22T08:35:09;99503.41;;;15.77;55.91
17649;BME280;8943;51.110;-4.158;2023-03-22T08:37:39;99502.88;;;15.82;55.99
17649;BME280;8943;51.110;-4.158;2023-03-22T08:40:08;99516.44;;;15.88;55.64
17649;BME280;8943;51.110;-4.158;2023-03-22T08:42:37;99512.19;;;15.94;56.14
17649;BME280;8943;51.110;-4.158;2023-03-22T08:45:06;99510.78;;;16.06;55.56
17649;BME280;8943;51.110;-4.158;2023-03-22T08:47:35;99505.03;;;16.09;55.27
17649;BME280;8943;51.110;-4.158;2023-03-22T08:50:04;99497.28;;;16.14;55.34
17649;BME280;8943;51.110;-4.158;2023-03-22T08:52:33;99491.75;;;16.16;55.18
17649;BME280;8943;51.110;-4.158;2023-03-22T08:55:04;99498.25;;;16.21;55.07
17649;BME280;8943;51.110;-4.158;2023-03-22T08:57:33;99500.41;;;16.26;55.06
17649;BME280;8943;51.110;-4.158;2023-03-22T09:00:05;99497.53;;;16.28;54.85
17649;BME280;8943;51.110;-4.158;2023-03-22T09:02:36;99512.25;;;16.40;54.76
17649;BME280;8943;51.110;-4.158;2023-03-22T09:05:04;99516.44;;;16.34;54.30
17649;BME280;8943;51.110;-4.158;2023-03-22T09:07:33;99515.09;;;16.38;54.25
17649;BME280;8943;51.110;-4.158;2023-03-22T09:10:06;99499.44;;;16.42;54.24
17649;BME280;8943;51.110;-4.158;2023-03-22T09:12:35;99506.66;;;16.41;53.76
17649;BME280;8943;51.110;-4.158;2023-03-22T09:15:04;99496.22;;;16.46;53.49
17649;BME280;8943;51.110;-4.158;2023-03-22T09:17:33;99498.72;;;16.48;53.03
17649;BME280;8943;51.110;-4.158;2023-03-22T09:20:02;99482.28;;;16.43;52.83
17649;BME280;8943;51.110;-4.158;2023-03-22T09:22:38;99482.41;;;16.50;52.74
17649;BME280;8943;51.110;-4.158;2023-03-22T09:25:09;99489.06;;;16.54;52.63
17649;BME280;8943;51.110;-4.158;2023-03-22T09:27:38;99484.28;;;16.64;51.90
17649;BME280;8943;51.110;-4.158;2023-03-22T09:30:10;99481.50;;;16.57;51.82
17649;BME280;8943;51.110;-4.158;2023-03-22T09:32:42;99484.41;;;16.70;51.85
17649;BME280;8943;51.110;-4.158;2023-03-22T09:35:11;99495.97;;;16.79;51.52
17649;BME280;8943;51.110;-4.158;2023-03-22T09:37:39;99489.38;;;16.82;51.26
17649;BME280;8943;51.110;-4.158;2023-03-22T09:40:11;99490.22;;;16.97;51.39
17649;BME280;8943;51.110;-4.158;2023-03-22T09:42:43;99495.31;;;17.07;51.18
17649;BME280;8943;51.110;-4.158;2023-03-22T09:45:17;99482.97;;;17.12;51.15
17649;BME280;8943;51.110;-4.158;2023-03-22T09:47:49;99486.63;;;17.19;50.96
17649;BME280;8943;51.110;-4.158;2023-03-22T09:50:48;99479.28;;;17.28;50.69
17649;BME280;8943;51.110;-4.158;2023-03-22T09:53:27;99498.41;;;17.33;50.52
17649;BME280;8943;51.110;-4.158;2023-03-22T09:56:07;99511.94;;;17.40;50.34
17649;BME280;8943;51.110;-4.158;2023-03-22T09:58:47;99503.88;;;17.40;49.89
17649;BME280;8943;51.110;-4.158;2023-03-22T10:01:24;99501.81;;;17.42;49.66
17649;BME280;8943;51.110;-4.158;2023-03-22T10:07:12;99485.09;;;17.46;48.69
17649;BME280;8943;51.110;-4.158;2023-03-22T10:09:53;99493.44;;;17.51;48.21
17649;BME280;8943;51.110;-4.158;2023-03-22T10:12:30;99483.34;;;17.54;47.98
17649;BME280;8943;51.110;-4.158;2023-03-22T10:15:17;99482.13;;;17.56;48.20
17649;BME280;8943;51.110;-4.158;2023-03-22T10:17:50;99481.00;;;17.65;47.72
17649;BME280;8943;51.110;-4.158;2023-03-22T10:20:37;99486.00;;;17.68;47.35
17649;BME280;8943;51.110;-4.158;2023-03-22T10:23:11;99466.78;;;17.71;47.57
17649;BME280;8943;51.110;-4.158;2023-03-22T10:25:42;99466.31;;;17.83;46.43
17649;BME280;8943;51.110;-4.158;2023-03-22T10:28:18;99467.22;;;17.90;46.13
17649;BME280;8943;51.110;-4.158;2023-03-22T10:30:53;99473.78;;;18.02;45.55
17649;BME280;8943;51.110;-4.158;2023-03-22T10:33:30;99465.75;;;18.09;45.47
17649;BME280;8943;51.110;-4.158;2023-03-22T10:36:02;99479.94;;;18.17;45.13
17649;BME280;8943;51.110;-4.158;2023-03-22T10:38:33;99452.22;;;18.23;44.64
17649;BME280;8943;51.110;-4.158;2023-03-22T10:41:05;99447.72;;;18.31;43.69
17649;BME280;8943;51.110;-4.158;2023-03-22T10:43:38;99452.59;;;18.42;43.01
17649;BME280;8943;51.110;-4.158;2023-03-22T10:46:12;99437.03;;;18.44;41.37
17649;BME280;8943;51.110;-4.158;2023-03-22T10:48:48;99447.00;;;18.43;41.85
17649;BME280;8943;51.110;-4.158;2023-03-22T10:51:24;99461.19;;;18.52;42.11
17649;BME280;8943;51.110;-4.158;2023-03-22T10:53:55;99450.66;;;18.64;42.19
17649;BME280;8943;51.110;-4.158;2023-03-22T10:56:25;99446.44;;;18.76;41.82
17649;BME280;8943;51.110;-4.158;2023-03-22T10:58:56;99446.09;;;18.86;41.20
17649;BME280;8943;51.110;-4.158;2023-03-22T11:01:28;99439.53;;;18.95;41.20
17649;BME280;8943;51.110;-4.158;2023-03-22T11:04:07;99454.91;;;19.01;41.42
17649;BME280;8943;51.110;-4.158;2023-03-22T11:06:38;99448.31;;;19.10;40.85
17649;BME280;8943;51.110;-4.158;2023-03-22T11:09:11;99455.47;;;19.24;41.17
17649;BME280;8943;51.110;-4.158;2023-03-22T11:11:47;99453.22;;;19.35;41.26
17649;BME280;8943;51.110;-4.158;2023-03-22T11:14:26;99449.34;;;19.44;40.35
17649;BME280;8943;51.110;-4.158;2023-03-22T11:16:58;99451.22;;;19.56;40.88
17649;BME280;8943;51.110;-4.158;2023-03-22T11:19:32;99450.47;;;19.63;40.80
17649;BME280;8943;51.110;-4.158;2023-03-22T11:22:03;99440.72;;;19.75;40.58
17649;BME280;8943;51.110;-4.158;2023-03-22T11:24:33;99432.88;;;19.87;40.58
17649;BME280;8943;51.110;-4.158;2023-03-22T11:27:04;99424.56;;;19.95;39.73
17649;BME280;8943;51.110;-4.158;2023-03-22T11:29:43;99434.16;;;20.04;39.36
17649;BME280;8943;51.110;-4.158;2023-03-22T11:32:25;99430.41;;;20.05;38.92
17649;BME280;8943;51.110;-4.158;2023-03-22T11:35:00;99429.38;;;20.06;38.90
17649;BME280;8943;51.110;-4.158;2023-03-22T11:37:29;99441.22;;;20.05;38.88
17649;BME280;8943;51.110;-4.158;2023-03-22T11:40:01;99435.59;;;20.00;38.89
17649;BME280;8943;51.110;-4.158;2023-03-22T11:42:33;99427.03;;;19.90;39.03
17649;BME280;8943;51.110;-4.158;2023-03-22T11:45:04;99432.22;;;19.85;39.32
17649;BME280;8943;51.110;-4.158;2023-03-22T11:47:37;99447.19;;;19.80;39.27
17649;BME280;8943;51.110;-4.158;2023-03-22T11:50:22;99440.13;;;19.73;39.53
17649;BME280;8943;51.110;-4.158;2023-03-22T11:52:52;99450.50;;;19.69;39.63
17649;BME280;8943;51.110;-4.158;2023-03-22T11:55:23;99436.50;;;19.59;39.04
17649;BME280;8943;51.110;-4.158;2023-03-22T11:57:54;99429.88;;;19.62;39.51
17649;BME280;8943;51.110;-4.158;2023-03-22T12:00:25;99411.75;;;19.55;39.82
17649;BME280;8943;51.110;-4.158;2023-03-22T12:02:59;99426.50;;;19.53;39.67
17649;BME280;8943;51.110;-4.158;2023-03-22T12:05:30;99430.84;;;19.47;39.75
17649;BME280;8943;51.110;-4.158;2023-03-22T12:08:03;99429.00;;;19.48;40.12
17649;BME280;8943;51.110;-4.158;2023-03-22T12:10:38;99426.69;;;19.45;40.30
17649;BME280;8943;51.110;-4.158;2023-03-22T12:13:15;99432.09;;;19.45;40.17
17649;BME280;8943;51.110;-4.158;2023-03-22T12:15:55;99421.09;;;19.53;40.43
17649;BME280;8943;51.110;-4.158;2023-03-22T12:18:29;99415.28;;;19.56;40.34
17649;BME280;8943;51.110;-4.158;2023-03-22T12:21:00;99424.03;;;19.58;40.22
17649;BME280;8943;51.110;-4.158;2023-03-22T12:23:31;99423.63;;;19.61;40.68
17649;BME280;8943;51.110;-4.158;2023-03-22T12:26:03;99412.44;;;19.64;40.99
17649;BME280;8943;51.110;-4.158;2023-03-22T12:28:34;99422.25;;;19.72;41.03
17649;BME280;8943;51.110;-4.158;2023-03-22T12:31:10;99417.25;;;19.75;40.49
17649;BME280;8943;51.110;-4.158;2023-03-22T12:33:43;99427.03;;;19.76;40.38
17649;BME280;8943;51.110;-4.158;2023-03-22T12:36:15;99423.25;;;19.71;40.49
17649;BME280;8943;51.110;-4.158;2023-03-22T12:38:47;99426.16;;;19.69;40.50
17649;BME280;8943;51.110;-4.158;2023-03-22T12:41:24;99419.09;;;19.68;40.47
17649;BME280;8943;51.110;-4.158;2023-03-22T12:43:55;99409.72;;;19.64;39.69
17649;BME280;8943;51.110;-4.158;2023-03-22T12:46:28;99403.72;;;19.62;39.96
17649;BME280;8943;51.110;-4.158;2023-03-22T12:49:00;99397.28;;;19.63;39.97
17649;BME280;8943;51.110;-4.158;2023-03-22T12:51:29;99372.31;;;19.61;39.75
17649;BME280;8943;51.110;-4.158;2023-03-22T12:53:59;99388.94;;;19.65;39.98
17649;BME280;8943;51.110;-4.158;2023-03-22T12:56:35;99411.00;;;19.68;39.89
17649;BME280;8943;51.110;-4.158;2023-03-22T12:59:10;99382.09;;;19.69;39.54
17649;BME280;8943;51.110;-4.158;2023-03-22T13:01:47;99414.75;;;19.74;40.19
17649;BME280;8943;51.110;-4.158;2023-03-22T13:04:29;99403.31;;;19.78;40.00
17649;BME280;8943;51.110;-4.158;2023-03-22T13:07:12;99412.28;;;19.86;39.97
17649;BME280;8943;51.110;-4.158;2023-03-22T13:09:42;99420.81;;;19.89;39.79
17649;BME280;8943;51.110;-4.158;2023-03-22T13:12:29;99413.97;;;19.87;38.78
17649;BME280;8943;51.110;-4.158;2023-03-22T13:15:02;99402.09;;;19.88;38.97
17649;BME280;8943;51.110;-4.158;2023-03-22T13:17:43;99417.88;;;19.84;38.62
17649;BME280;8943;51.110;-4.158;2023-03-22T13:20:34;99405.41;;;19.76;38.63
17649;BME280;8943;51.110;-4.158;2023-03-22T13:23:24;99399.16;;;19.76;38.48
17649;BME280;8943;51.110;-4.158;2023-03-22T13:26:01;99396.03;;;19.72;38.35
17649;BME280;8943;51.110;-4.158;2023-03-22T13:29:06;99390.81;;;19.64;38.55
17649;BME280;8943;51.110;-4.158;2023-03-22T13:31:40;99384.16;;;19.60;38.07
17649;BME280;8943;51.110;-4.158;2023-03-22T13:34:30;99378.66;;;19.47;38.33
17649;BME280;8943;51.110;-4.158;2023-03-22T13:37:07;99355.19;;;19.41;38.58
17649;BME280;8943;51.110;-4.158;2023-03-22T13:39:38;99381.97;;;19.36;39.04
17649;BME280;8943;51.110;-4.158;2023-03-22T13:42:17;99370.72;;;19.25;38.15